Time,TemperatureF,DewpointF,PressureIn,WindDirection,WindDirectionDegrees,WindSpeedMPH,WindSpeedGustMPH,Humidity,HourlyPrecipIn,Conditions,Clouds,dailyrainin,SoftwareType,DateUTC
2015-03-30 00:11:00,52.9,43.0,29.83,West,270,10.4,-999.0,69,-99.99,,,0.00,Acu-Link.com,2015-03-30 04:11:00,
2015-03-30 00:26:00,51.6,44.6,29.84,West,270,4.7,-999.0,77,-99.99,,,0.00,Acu-Link.com,2015-03-30 04:26:00,
2015-03-30 00:41:00,51.3,45.3,29.84,West,270,4.2,-999.0,80,-99.99,,,0.01,Acu-Link.com,2015-03-30 04:41:00,
2015-03-30 00:57:00,50.5,46.2,29.85,South,180,5.3,-999.0,85,-99.99,,,0.01,Acu-Link.com,2015-03-30 04:57:00,
2015-03-30 01:12:00,49.3,46.2,29.84,SSW,202,2.2,-999.0,89,-99.99,,,0.04,Acu-Link.com,2015-03-30 05:12:00,
2015-03-30 01:27:00,48.7,46.2,29.85,West,270,1.1,-999.0,91,-99.99,,,0.05,Acu-Link.com,2015-03-30 05:27:00,
2015-03-30 01:42:00,48.7,46.2,29.84,SW,225,1.7,-999.0,91,-99.99,,,0.06,Acu-Link.com,2015-03-30 05:42:00,
2015-03-30 01:58:00,49.3,46.5,29.84,SSW,202,1.7,-999.0,90,-99.99,,,0.06,Acu-Link.com,2015-03-30 05:58:00,
2015-03-30 02:13:00,49.3,46.5,29.84,South,180,6.3,-999.0,90,-99.99,,,0.06,Acu-Link.com,2015-03-30 06:13:00,
2015-03-30 02:28:00,49.8,46.7,29.84,West,270,7.3,-999.0,89,-99.99,,,0.06,Acu-Link.com,2015-03-30 06:28:00,
2015-03-30 02:43:00,49.8,46.7,29.83,SSW,202,3.7,-999.0,89,-99.99,,,0.06,Acu-Link.com,2015-03-30 06:43:00,
2015-03-30 02:58:00,49.5,46.4,29.82,West,270,5.3,-999.0,89,-99.99,,,0.06,Acu-Link.com,2015-03-30 06:58:00,
2015-03-30 03:14:00,49.3,46.2,29.81,WSW,247,3.7,-999.0,89,-99.99,,,0.06,Acu-Link.com,2015-03-30 07:14:00,
2015-03-30 03:29:00,48.9,45.8,29.81,West,270,2.7,-999.0,89,-99.99,,,0.06,Acu-Link.com,2015-03-30 07:29:00,
2015-03-30 03:44:00,48.6,45.8,29.81,WSW,247,1.7,-999.0,90,-99.99,,,0.06,Acu-Link.com,2015-03-30 07:44:00,
2015-03-30 04:00:00,48.7,45.9,29.81,SSW,202,2.2,-999.0,90,-99.99,,,0.06,Acu-Link.com,2015-03-30 08:00:00,
2015-03-30 04:15:00,48.9,46.1,29.81,West,270,3.7,-999.0,90,-99.99,,,0.06,Acu-Link.com,2015-03-30 08:15:00,
2015-03-30 04:30:00,48.4,45.6,29.81,WSW,247,0.0,-999.0,90,-99.99,,,0.06,Acu-Link.com,2015-03-30 08:30:00,
2015-03-30 04:45:00,47.8,45.3,29.81,West,270,2.2,-999.0,91,-99.99,,,0.06,Acu-Link.com,2015-03-30 08:45:00,
2015-03-30 05:01:00,47.3,45.1,29.82,SSW,202,3.2,-999.0,92,-99.99,,,0.06,Acu-Link.com,2015-03-30 09:01:00,
2015-03-30 05:16:00,46.6,44.4,29.82,West,270,0.0,-999.0,92,-99.99,,,0.06,Acu-Link.com,2015-03-30 09:16:00,
2015-03-30 05:31:00,46.2,44.3,29.82,West,270,2.2,-999.0,93,-99.99,,,0.06,Acu-Link.com,2015-03-30 09:31:00,
2015-03-30 05:46:00,45.9,44.0,29.82,West,270,2.7,-999.0,93,-99.99,,,0.06,Acu-Link.com,2015-03-30 09:46:00,
2015-03-30 06:01:00,45.7,43.8,29.83,WNW,292,3.2,-999.0,93,-99.99,,,0.06,Acu-Link.com,2015-03-30 10:01:00,
2015-03-30 06:16:00,45.5,43.6,29.84,WNW,292,2.7,-999.0,93,-99.99,,,0.06,Acu-Link.com,2015-03-30 10:16:00,
2015-03-30 06:32:00,45.3,43.4,29.85,WNW,292,2.7,-999.0,93,-99.99,,,0.06,Acu-Link.com,2015-03-30 10:32:00,
2015-03-30 06:47:00,44.4,42.8,29.86,WNW,292,1.1,-999.0,94,-99.99,,,0.06,Acu-Link.com,2015-03-30 10:47:00,
2015-03-30 07:02:00,43.3,42.0,29.86,WNW,292,0.0,-999.0,95,-99.99,,,0.06,Acu-Link.com,2015-03-30 11:02:00,
2015-03-30 07:18:00,42.4,41.3,29.87,WNW,292,0.0,-999.0,96,-99.99,,,0.06,Acu-Link.com,2015-03-30 11:18:00,
2015-03-30 07:33:00,42.3,41.8,29.88,WNW,292,0.0,-999.0,98,-99.99,,,0.06,Acu-Link.com,2015-03-30 11:33:00,
2015-03-30 07:48:00,41.5,41.0,29.89,WNW,292,0.0,-999.0,98,-99.99,,,0.06,Acu-Link.com,2015-03-30 11:48:00,
2015-03-30 08:03:00,41.5,41.0,29.89,WNW,292,0.0,-999.0,98,-99.99,,,0.06,Acu-Link.com,2015-03-30 12:03:00,
2015-03-30 08:18:00,43.0,42.5,29.90,WNW,292,2.2,-999.0,98,-99.99,,,0.06,Acu-Link.com,2015-03-30 12:18:00,
2015-03-30 08:33:00,45.0,44.5,29.91,WNW,292,2.7,-999.0,98,-99.99,,,0.06,Acu-Link.com,2015-03-30 12:33:00,
2015-03-30 08:48:00,46.2,45.4,29.91,West,270,2.2,-999.0,97,-99.99,,,0.06,Acu-Link.com,2015-03-30 12:48:00,
2015-03-30 09:03:00,48.0,46.4,29.92,West,270,4.2,-999.0,94,-99.99,,,0.06,Acu-Link.com,2015-03-30 13:03:00,
2015-03-30 09:18:00,50.4,47.6,29.92,West,270,3.7,-999.0,90,-99.99,,,0.06,Acu-Link.com,2015-03-30 13:18:00,
2015-03-30 09:33:00,51.3,48.2,29.92,West,270,2.2,-999.0,89,-99.99,,,0.06,Acu-Link.com,2015-03-30 13:33:00,
2015-03-30 09:48:00,51.4,47.4,29.93,West,270,4.2,-999.0,86,-99.99,,,0.06,Acu-Link.com,2015-03-30 13:48:00,
2015-03-30 10:04:00,53.8,48.1,29.94,West,270,5.8,-999.0,81,-99.99,,,0.06,Acu-Link.com,2015-03-30 14:04:00,
2015-03-30 10:19:00,56.1,46.5,29.94,NNW,337,4.2,-999.0,70,-99.99,,,0.06,Acu-Link.com,2015-03-30 14:19:00,
2015-03-30 10:34:00,53.1,45.7,29.94,NW,315,2.2,-999.0,76,-99.99,,,0.06,Acu-Link.com,2015-03-30 14:34:00,